CSN1086 ZPLJ-ZBMZ
Flight info
| Callsign | CSN1086 |
|---|---|
| Flight time | N/A |
| Altitude | 33100 |
| Route | CEH W162 KAKMI W144 IGNAK W179 JTG W277 MIGIR/M080S1070 W193 ALGOV W101 DUDIL W69 P304 H13 IKITI A345 KAGAK W538 MZL |
| Aircraft | A320/M-SDE3FGHIRWY/LB1 |
Departure
| Time | 2026-04-28 13:36 |
|---|---|
| Airport | Lijiang Sanyi International Airport (ZPLJ) |
Arrival
| Time | N/A |
|---|---|
| Airport | Manzhouli Xijiao Airport (ZBMZ) |
| Time | Latitude | Longitude | Altitude | Speed | Heading |
|---|---|---|---|---|---|
| 2026-04-28 13:01 | 26.66860 | 100.24539 | 7258 ft | 0 kts | 16° |
| 2026-04-28 13:22 | 26.66850 | 100.24536 | 7263 ft | 4 kts | 16° |
| 2026-04-28 13:22 | 26.66824 | 100.24527 | 7260 ft | 4 kts | 16° |
| 2026-04-28 13:23 | 26.66802 | 100.24520 | 7260 ft | 4 kts | 7° |
| 2026-04-28 13:23 | 26.66779 | 100.24523 | 7260 ft | 4 kts | 308° |
| 2026-04-28 13:23 | 26.66771 | 100.24550 | 7260 ft | 4 kts | 278° |
| 2026-04-28 13:23 | 26.66768 | 100.24568 | 7260 ft | 0 kts | 287° |
| 2026-04-28 13:28 | 26.66769 | 100.24566 | 7260 ft | 2 kts | 287° |
| 2026-04-28 13:28 | 26.66780 | 100.24526 | 7260 ft | 8 kts | 287° |
| 2026-04-28 13:28 | 26.66793 | 100.24476 | 7258 ft | 5 kts | 287° |
| 2026-04-28 13:29 | 26.66803 | 100.24439 | 7258 ft | 5 kts | 287° |
| 2026-04-28 13:29 | 26.66815 | 100.24396 | 7259 ft | 6 kts | 287° |
| 2026-04-28 13:29 | 26.66854 | 100.24376 | 7259 ft | 8 kts | 1° |
| 2026-04-28 13:29 | 26.66923 | 100.24396 | 7259 ft | 12 kts | 17° |
| 2026-04-28 13:30 | 26.67017 | 100.24428 | 7258 ft | 16 kts | 17° |
| 2026-04-28 13:30 | 26.67136 | 100.24466 | 7257 ft | 19 kts | 17° |
| 2026-04-28 13:30 | 26.67273 | 100.24513 | 7257 ft | 21 kts | 16° |
| 2026-04-28 13:30 | 26.67411 | 100.24560 | 7257 ft | 20 kts | 15° |
| 2026-04-28 13:31 | 26.67679 | 100.24651 | 7257 ft | 20 kts | 17° |
| 2026-04-28 13:31 | 26.67810 | 100.24695 | 7257 ft | 20 kts | 17° |
| 2026-04-28 13:31 | 26.67940 | 100.24739 | 7257 ft | 19 kts | 17° |
| 2026-04-28 13:32 | 26.68066 | 100.24782 | 7258 ft | 19 kts | 17° |
| 2026-04-28 13:32 | 26.68191 | 100.24825 | 7257 ft | 19 kts | 17° |
| 2026-04-28 13:32 | 26.68316 | 100.24867 | 7257 ft | 19 kts | 17° |
| 2026-04-28 13:32 | 26.68440 | 100.24909 | 7257 ft | 18 kts | 17° |
| 2026-04-28 13:33 | 26.68562 | 100.24951 | 7257 ft | 18 kts | 17° |
| 2026-04-28 13:33 | 26.68684 | 100.24994 | 7257 ft | 18 kts | 17° |
| 2026-04-28 13:33 | 26.68803 | 100.25035 | 7257 ft | 18 kts | 17° |
| 2026-04-28 13:33 | 26.68919 | 100.25071 | 7257 ft | 16 kts | 3° |
| 2026-04-28 13:34 | 26.68965 | 100.25007 | 7257 ft | 10 kts | 286° |
| 2026-04-28 13:34 | 26.68981 | 100.24943 | 7257 ft | 7 kts | 286° |
| 2026-04-28 13:34 | 26.68977 | 100.24908 | 7257 ft | 3 kts | 216° |
| 2026-04-28 13:34 | 26.68972 | 100.24907 | 7257 ft | 0 kts | 196° |
| 2026-04-28 13:35 | 26.68940 | 100.24897 | 7257 ft | 22 kts | 197° |
| 2026-04-28 13:35 | 26.68539 | 100.24761 | 7258 ft | 96 kts | 197° |
| 2026-04-28 13:35 | 26.67688 | 100.24472 | 7254 ft | 157 kts | 197° |
| 2026-04-28 13:35 | 26.66473 | 100.24074 | 7354 ft | 200 kts | 195° |
| 2026-04-28 13:36 | 26.65180 | 100.23630 | 8286 ft | 191 kts | 196° |
| 2026-04-28 13:36 | 26.63918 | 100.23196 | 9045 ft | 189 kts | 195° |
| 2026-04-28 13:36 | 26.62642 | 100.22765 | 9423 ft | 196 kts | 195° |
| 2026-04-28 13:36 | 26.61309 | 100.22319 | 9752 ft | 202 kts | 195° |
| 2026-04-28 13:37 | 26.59975 | 100.21859 | 10197 ft | 200 kts | 195° |
| 2026-04-28 13:37 | 26.58630 | 100.21397 | 10477 ft | 209 kts | 195° |
| 2026-04-28 13:37 | 26.57170 | 100.20907 | 10615 ft | 226 kts | 196° |
| 2026-04-28 13:37 | 26.55618 | 100.20390 | 10804 ft | 242 kts | 196° |
| 2026-04-28 13:38 | 26.53938 | 100.19822 | 10950 ft | 262 kts | 198° |
| 2026-04-28 13:38 | 26.52146 | 100.19206 | 11291 ft | 276 kts | 198° |
| 2026-04-28 13:38 | 26.50284 | 100.18572 | 11749 ft | 283 kts | 199° |
| 2026-04-28 13:38 | 26.48389 | 100.17929 | 12335 ft | 286 kts | 199° |
| 2026-04-28 13:39 | 26.46431 | 100.17398 | 12973 ft | 288 kts | 182° |
| 2026-04-28 13:39 | 26.44475 | 100.17881 | 13503 ft | 295 kts | 150° |
| 2026-04-28 13:39 | 26.42990 | 100.19453 | 13896 ft | 300 kts | 118° |
| 2026-04-28 13:39 | 26.42239 | 100.21629 | 14396 ft | 302 kts | 103° |
| 2026-04-28 13:40 | 26.41831 | 100.23943 | 14866 ft | 306 kts | 98° |
| 2026-04-28 13:40 | 26.41478 | 100.26290 | 15382 ft | 308 kts | 99° |
| 2026-04-28 13:40 | 26.41048 | 100.28679 | 15870 ft | 312 kts | 102° |
| 2026-04-28 13:40 | 26.40694 | 100.31075 | 16380 ft | 314 kts | 95° |
| 2026-04-28 13:41 | 26.40523 | 100.33507 | 16865 ft | 317 kts | 90° |
| 2026-04-28 13:41 | 26.40562 | 100.35971 | 17373 ft | 319 kts | 83° |
| 2026-04-28 13:41 | 26.40897 | 100.38426 | 17854 ft | 322 kts | 75° |
| 2026-04-28 13:41 | 26.41568 | 100.40818 | 18318 ft | 324 kts | 65° |
| 2026-04-28 13:42 | 26.42557 | 100.43072 | 18742 ft | 324 kts | 56° |
| 2026-04-28 13:42 | 26.43844 | 100.45135 | 19166 ft | 324 kts | 48° |
| 2026-04-28 13:42 | 26.45405 | 100.47043 | 19366 ft | 336 kts | 43° |
| 2026-04-28 13:42 | 26.47059 | 100.48956 | 19484 ft | 350 kts | 44° |
| 2026-04-28 13:43 | 26.48770 | 100.50966 | 19621 ft | 364 kts | 44° |
| 2026-04-28 13:43 | 26.50532 | 100.53055 | 19747 ft | 377 kts | 44° |
| 2026-04-28 13:43 | 26.52362 | 100.55229 | 19851 ft | 390 kts | 44° |
| 2026-04-28 13:43 | 26.54245 | 100.57468 | 20005 ft | 402 kts | 44° |
| 2026-04-28 13:44 | 26.56187 | 100.59773 | 20117 ft | 413 kts | 44° |
| 2026-04-28 13:44 | 26.58184 | 100.62140 | 20214 ft | 423 kts | 44° |
| 2026-04-28 13:44 | 26.60226 | 100.64556 | 20389 ft | 431 kts | 44° |
| 2026-04-28 13:44 | 26.62302 | 100.67014 | 20565 ft | 438 kts | 44° |
| 2026-04-28 13:45 | 26.63684 | 100.68652 | 20778 ft | 440 kts | 44° |
| 2026-04-28 13:45 | 26.65794 | 100.71154 | 21098 ft | 444 kts | 44° |
| 2026-04-28 13:45 | 26.67895 | 100.73705 | 21464 ft | 447 kts | 46° |
| 2026-04-28 13:45 | 26.69938 | 100.76344 | 21789 ft | 451 kts | 48° |
| 2026-04-28 13:46 | 26.71949 | 100.79053 | 22149 ft | 454 kts | 49° |
| 2026-04-28 13:46 | 26.73971 | 100.81829 | 22459 ft | 457 kts | 49° |
| 2026-04-28 13:46 | 26.75985 | 100.84601 | 22798 ft | 459 kts | 49° |
| 2026-04-28 13:46 | 26.78015 | 100.87373 | 23159 ft | 461 kts | 49° |
| 2026-04-28 13:47 | 26.80064 | 100.90140 | 23482 ft | 464 kts | 48° |
| 2026-04-28 13:47 | 26.82135 | 100.92910 | 23798 ft | 464 kts | 48° |
| 2026-04-28 13:47 | 26.84212 | 100.95677 | 24148 ft | 464 kts | 48° |
| 2026-04-28 13:47 | 26.86291 | 100.98451 | 24499 ft | 464 kts | 48° |
| 2026-04-28 13:48 | 26.88359 | 101.01217 | 24850 ft | 464 kts | 48° |
| 2026-04-28 13:48 | 26.90423 | 101.03986 | 25219 ft | 463 kts | 48° |
| 2026-04-28 13:48 | 26.92489 | 101.06762 | 25605 ft | 463 kts | 48° |
| 2026-04-28 13:48 | 26.94549 | 101.09533 | 25976 ft | 462 kts | 48° |
| 2026-04-28 13:49 | 26.96610 | 101.12304 | 26358 ft | 462 kts | 48° |
| 2026-04-28 13:49 | 26.98663 | 101.15068 | 26720 ft | 462 kts | 48° |
| 2026-04-28 13:49 | 27.00717 | 101.17835 | 27085 ft | 462 kts | 48° |
| 2026-04-28 13:49 | 27.02772 | 101.20605 | 27485 ft | 461 kts | 49° |
| 2026-04-28 13:50 | 27.04822 | 101.23369 | 27901 ft | 460 kts | 49° |
| 2026-04-28 13:50 | 27.06863 | 101.26121 | 28304 ft | 459 kts | 49° |
| 2026-04-28 13:50 | 27.08906 | 101.28877 | 28646 ft | 459 kts | 49° |
| 2026-04-28 13:50 | 27.10975 | 101.31669 | 29014 ft | 459 kts | 49° |
| 2026-04-28 13:51 | 27.13016 | 101.34429 | 29357 ft | 460 kts | 49° |
| 2026-04-28 13:51 | 27.15059 | 101.37191 | 29688 ft | 460 kts | 49° |
| 2026-04-28 13:51 | 27.17073 | 101.39917 | 30033 ft | 460 kts | 49° |
| 2026-04-28 13:51 | 27.19143 | 101.42724 | 30381 ft | 460 kts | 49° |
| 2026-04-28 13:52 | 27.21179 | 101.45483 | 30658 ft | 460 kts | 49° |
| 2026-04-28 13:52 | 27.23225 | 101.48248 | 30953 ft | 460 kts | 49° |
| 2026-04-28 13:52 | 27.25288 | 101.51012 | 31253 ft | 461 kts | 49° |
| 2026-04-28 13:52 | 27.27354 | 101.53762 | 31524 ft | 461 kts | 48° |
| 2026-04-28 13:53 | 27.29425 | 101.56515 | 31775 ft | 462 kts | 48° |
| 2026-04-28 13:53 | 27.31501 | 101.59280 | 32042 ft | 463 kts | 48° |
| 2026-04-28 13:53 | 27.33589 | 101.62062 | 32166 ft | 467 kts | 48° |
| 2026-04-28 13:53 | 27.35690 | 101.64864 | 32315 ft | 471 kts | 48° |
| 2026-04-28 13:54 | 27.37800 | 101.67692 | 32424 ft | 475 kts | 48° |
| 2026-04-28 13:54 | 27.39934 | 101.70559 | 32571 ft | 480 kts | 49° |
| 2026-04-28 13:54 | 27.42084 | 101.73446 | 32681 ft | 484 kts | 49° |
| 2026-04-28 13:54 | 27.44256 | 101.76363 | 32793 ft | 488 kts | 49° |
| 2026-04-28 13:55 | 27.46443 | 101.79299 | 32959 ft | 491 kts | 49° |
| 2026-04-28 13:55 | 27.48641 | 101.82253 | 33069 ft | 494 kts | 49° |
| 2026-04-28 13:55 | 27.50853 | 101.85229 | 33225 ft | 496 kts | 49° |
| 2026-04-28 13:55 | 27.53077 | 101.88225 | 33265 ft | 502 kts | 49° |
| 2026-04-28 13:56 | 27.57604 | 101.94330 | 33260 ft | 510 kts | 49° |
| 2026-04-28 13:56 | 27.62150 | 102.00455 | 33261 ft | 509 kts | 49° |
| 2026-04-28 13:57 | 27.66694 | 102.06591 | 33255 ft | 511 kts | 49° |
| 2026-04-28 13:57 | 27.71255 | 102.12767 | 33258 ft | 513 kts | 49° |
| 2026-04-28 13:58 | 27.75317 | 102.19364 | 33249 ft | 514 kts | 63° |
| 2026-04-28 13:58 | 27.78565 | 102.26553 | 33252 ft | 514 kts | 63° |
| 2026-04-28 13:59 | 27.81821 | 102.33738 | 33257 ft | 514 kts | 63° |
| 2026-04-28 13:59 | 27.85078 | 102.40921 | 33243 ft | 514 kts | 63° |
| 2026-04-28 14:00 | 27.88337 | 102.48122 | 33254 ft | 516 kts | 63° |
| 2026-04-28 14:00 | 27.91605 | 102.55370 | 33256 ft | 518 kts | 63° |
| 2026-04-28 14:01 | 27.94898 | 102.62690 | 33273 ft | 520 kts | 63° |
| 2026-04-28 14:01 | 27.98179 | 102.69988 | 33276 ft | 521 kts | 63° |
| 2026-04-28 14:02 | 28.01461 | 102.77298 | 33272 ft | 522 kts | 64° |
| 2026-04-28 14:02 | 28.04747 | 102.84639 | 33274 ft | 523 kts | 64° |
| 2026-04-28 14:03 | 28.08032 | 102.92003 | 33313 ft | 524 kts | 64° |
| 2026-04-28 14:03 | 28.11315 | 102.99356 | 33312 ft | 523 kts | 64° |
| 2026-04-28 14:04 | 28.14598 | 103.06718 | 33312 ft | 523 kts | 64° |
| 2026-04-28 14:04 | 28.17877 | 103.14084 | 33293 ft | 523 kts | 64° |
| 2026-04-28 14:05 | 28.21151 | 103.21459 | 33287 ft | 524 kts | 64° |
| 2026-04-28 14:05 | 28.24429 | 103.28855 | 33285 ft | 525 kts | 64° |
| 2026-04-28 14:06 | 28.27705 | 103.36256 | 33294 ft | 525 kts | 64° |
| 2026-04-28 14:06 | 28.30977 | 103.43670 | 33319 ft | 526 kts | 64° |
| 2026-04-28 14:07 | 28.34271 | 103.51145 | 33294 ft | 526 kts | 64° |
| 2026-04-28 14:07 | 28.37540 | 103.58569 | 33292 ft | 526 kts | 64° |
| 2026-04-28 14:08 | 28.40807 | 103.66022 | 33286 ft | 527 kts | 64° |
| 2026-04-28 14:08 | 28.44071 | 103.73473 | 33285 ft | 527 kts | 64° |
| 2026-04-28 14:09 | 28.47337 | 103.80918 | 33280 ft | 527 kts | 64° |
| 2026-04-28 14:09 | 28.50610 | 103.88383 | 33284 ft | 527 kts | 64° |
| 2026-04-28 14:10 | 28.53860 | 103.95851 | 33317 ft | 527 kts | 64° |
| 2026-04-28 14:10 | 28.57109 | 104.03320 | 33312 ft | 526 kts | 64° |
| 2026-04-28 14:11 | 28.60358 | 104.10769 | 33307 ft | 525 kts | 64° |
| 2026-04-28 14:11 | 28.63673 | 104.18175 | 33300 ft | 525 kts | 57° |
| 2026-04-28 14:12 | 28.65845 | 104.21484 | 33297 ft | 523 kts | 46° |
| 2026-04-28 14:12 | 28.68554 | 104.24311 | 33280 ft | 518 kts | 33° |
| 2026-04-28 14:12 | 28.71596 | 104.26456 | 33282 ft | 512 kts | 22° |
| 2026-04-28 14:12 | 28.74894 | 104.27912 | 33278 ft | 505 kts | 10° |
| 2026-04-28 14:13 | 28.81737 | 104.28694 | 33298 ft | 490 kts | 352° |
| 2026-04-28 14:13 | 28.88560 | 104.28310 | 33287 ft | 491 kts | 352° |
| 2026-04-28 14:14 | 28.95381 | 104.27941 | 33282 ft | 491 kts | 352° |
| 2026-04-28 14:14 | 29.02205 | 104.27574 | 33284 ft | 491 kts | 352° |
| 2026-04-28 14:15 | 29.09037 | 104.27196 | 33297 ft | 491 kts | 352° |
| 2026-04-28 14:15 | 29.15862 | 104.26821 | 33296 ft | 491 kts | 352° |
| 2026-04-28 14:16 | 29.21535 | 104.26512 | 33297 ft | 491 kts | 352° |
| 2026-04-28 14:16 | 29.28379 | 104.26424 | 33289 ft | 496 kts | 2° |
| 2026-04-28 14:17 | 29.35232 | 104.27568 | 33308 ft | 498 kts | 4° |
| 2026-04-28 14:17 | 29.42086 | 104.28732 | 33304 ft | 498 kts | 4° |
| 2026-04-28 14:18 | 29.48944 | 104.29883 | 33293 ft | 498 kts | 4° |
| 2026-04-28 14:18 | 29.55794 | 104.31043 | 33291 ft | 497 kts | 4° |
| 2026-04-28 14:19 | 29.62643 | 104.32208 | 33320 ft | 497 kts | 4° |
| 2026-04-28 14:19 | 29.69487 | 104.33381 | 33309 ft | 497 kts | 4° |
| 2026-04-28 14:20 | 29.76319 | 104.34550 | 33302 ft | 496 kts | 4° |
| 2026-04-28 14:20 | 29.83187 | 104.35726 | 33291 ft | 496 kts | 4° |
| 2026-04-28 14:21 | 29.90015 | 104.36891 | 33306 ft | 496 kts | 5° |
| 2026-04-28 14:21 | 29.96838 | 104.38062 | 33301 ft | 495 kts | 5° |
| 2026-04-28 14:22 | 30.03656 | 104.39229 | 33299 ft | 495 kts | 5° |
| 2026-04-28 14:22 | 30.10465 | 104.40399 | 33294 ft | 495 kts | 5° |
| 2026-04-28 14:23 | 30.17284 | 104.41577 | 33306 ft | 495 kts | 5° |
| 2026-04-28 14:23 | 30.24098 | 104.42767 | 33329 ft | 495 kts | 5° |
| 2026-04-28 14:24 | 30.30909 | 104.43956 | 33319 ft | 495 kts | 5° |
| 2026-04-28 14:24 | 30.37727 | 104.45148 | 33316 ft | 496 kts | 5° |
| 2026-04-28 14:25 | 30.44555 | 104.46344 | 33365 ft | 497 kts | 5° |
| 2026-04-28 14:25 | 30.47973 | 104.46944 | 33608 ft | 496 kts | 5° |
| 2026-04-28 14:25 | 30.51379 | 104.47541 | 33842 ft | 496 kts | 5° |
| 2026-04-28 14:26 | 30.54797 | 104.48139 | 34065 ft | 496 kts | 5° |
| 2026-04-28 14:26 | 30.58208 | 104.48573 | 34258 ft | 491 kts | 357° |
| 2026-04-28 14:26 | 30.61600 | 104.48382 | 34436 ft | 484 kts | 347° |
| 2026-04-28 14:26 | 30.64863 | 104.47563 | 34629 ft | 477 kts | 337° |
| 2026-04-28 14:27 | 30.68003 | 104.46358 | 34817 ft | 475 kts | 336° |
| 2026-04-28 14:27 | 30.71144 | 104.45145 | 35050 ft | 475 kts | 335° |
| 2026-04-28 14:27 | 30.74274 | 104.43946 | 35225 ft | 475 kts | 336° |
| 2026-04-28 14:27 | 30.77414 | 104.42748 | 35265 ft | 474 kts | 336° |
| 2026-04-28 14:28 | 30.83898 | 104.41151 | 35258 ft | 486 kts | 353° |
| 2026-04-28 14:28 | 30.87296 | 104.41370 | 35258 ft | 494 kts | 5° |
| 2026-04-28 14:28 | 30.90662 | 104.42330 | 35258 ft | 501 kts | 16° |
| 2026-04-28 14:29 | 30.93878 | 104.44053 | 35253 ft | 506 kts | 28° |
| 2026-04-28 14:29 | 30.96813 | 104.46236 | 35256 ft | 508 kts | 30° |
| 2026-04-28 14:29 | 31.02762 | 104.50739 | 35251 ft | 511 kts | 30° |
| 2026-04-28 14:30 | 31.08770 | 104.55278 | 35244 ft | 512 kts | 30° |
| 2026-04-28 14:30 | 31.14759 | 104.59800 | 35245 ft | 512 kts | 30° |
| 2026-04-28 14:31 | 31.20741 | 104.64325 | 35246 ft | 513 kts | 30° |
| 2026-04-28 14:31 | 31.26730 | 104.68861 | 35260 ft | 513 kts | 30° |
| 2026-04-28 14:32 | 31.32730 | 104.73414 | 35253 ft | 514 kts | 30° |
| 2026-04-28 14:32 | 31.38726 | 104.77982 | 35244 ft | 515 kts | 30° |
| 2026-04-28 14:33 | 31.44720 | 104.82559 | 35255 ft | 515 kts | 30° |
| 2026-04-28 14:33 | 31.50729 | 104.87140 | 35272 ft | 515 kts | 30° |
| 2026-04-28 14:34 | 31.59735 | 104.94023 | 35253 ft | 515 kts | 30° |
| 2026-04-28 14:35 | 31.65735 | 104.98621 | 35246 ft | 515 kts | 30° |
| 2026-04-28 14:35 | 31.71737 | 105.03234 | 35247 ft | 516 kts | 30° |
| 2026-04-28 14:36 | 31.77737 | 105.07849 | 35269 ft | 516 kts | 30° |
| 2026-04-28 14:36 | 31.83747 | 105.12475 | 35269 ft | 516 kts | 30° |
| 2026-04-28 14:37 | 31.89749 | 105.17102 | 35268 ft | 516 kts | 30° |
| 2026-04-28 14:37 | 31.95752 | 105.21735 | 35270 ft | 516 kts | 30° |
| 2026-04-28 14:38 | 32.01567 | 105.26814 | 35292 ft | 520 kts | 42° |
| 2026-04-28 14:38 | 32.06194 | 105.33378 | 35272 ft | 522 kts | 52° |
| 2026-04-28 14:39 | 32.10558 | 105.40220 | 35267 ft | 522 kts | 52° |
| 2026-04-28 14:39 | 32.14190 | 105.45901 | 35266 ft | 522 kts | 52° |